createdAt,value
2018-06-03T00:02:02.369Z,18.8
2018-06-03T00:07:32.655Z,18.8
2018-06-03T00:13:02.945Z,18.9
2018-06-03T00:18:32.338Z,18.9
2018-06-03T00:24:01.958Z,18.8
2018-06-03T00:29:31.897Z,18.8
2018-06-03T00:35:01.199Z,18.8
2018-06-03T00:40:30.509Z,18.8
2018-06-03T00:46:00.692Z,18.8
2018-06-03T00:51:31.009Z,18.7
2018-06-03T00:57:01.322Z,18.7
2018-06-03T01:02:31.592Z,18.6
2018-06-03T01:08:00.768Z,18.6
2018-06-03T01:13:30.072Z,18.6
2018-06-03T01:19:00.604Z,18.5
2018-06-03T01:24:29.576Z,18.5
2018-06-03T01:29:58.757Z,18.6
2018-06-03T01:35:28.065Z,18.5
2018-06-03T01:40:58.497Z,18.5
2018-06-03T01:46:27.526Z,18.4
2018-06-03T01:51:57.696Z,18.4
2018-06-03T01:57:26.938Z,18.4
2018-06-03T02:02:56.152Z,18.4
2018-06-03T02:08:26.383Z,18.4
2018-06-03T02:13:56.615Z,18.4
2018-06-03T02:19:26.810Z,18.3
2018-06-03T02:24:57.112Z,18.3
2018-06-03T02:30:27.316Z,18.3
2018-06-03T02:35:56.571Z,18.3
2018-06-03T02:41:26.737Z,18.3
2018-06-03T02:46:56.985Z,18.3
2018-06-03T02:52:26.173Z,18.2
2018-06-03T02:57:56.503Z,18.2
2018-06-03T03:03:26.608Z,18.3
2018-06-03T03:08:56.831Z,18.3
2018-06-03T03:14:26.039Z,18.3
2018-06-03T03:19:55.279Z,18.3
2018-06-03T03:25:24.469Z,18.2
2018-06-03T03:30:54.676Z,18.2
2018-06-03T03:36:24.866Z,18.2
2018-06-03T03:41:55.074Z,18.2
2018-06-03T03:47:25.316Z,18.2
2018-06-03T03:52:54.519Z,18.3
2018-06-03T03:58:23.700Z,18.3
2018-06-03T04:03:53.940Z,18.2
2018-06-03T04:09:24.198Z,18.2
2018-06-03T04:14:53.410Z,18.2
2018-06-03T04:20:23.551Z,18.2
2018-06-03T04:25:53.764Z,18.1
2018-06-03T04:31:22.905Z,18.1
2018-06-03T04:36:52.092Z,18.1
2018-06-03T04:42:22.579Z,18
2018-06-03T04:47:51.488Z,18
2018-06-03T04:53:21.809Z,18
2018-06-03T04:58:50.912Z,18.1
2018-06-03T05:04:20.053Z,18.1
2018-06-03T05:09:49.250Z,18.1
2018-06-03T05:09:49.678Z,18.1
2018-06-03T05:15:18.408Z,18.2
2018-06-03T05:20:48.623Z,18.2
2018-06-03T05:26:17.799Z,18.2
2018-06-03T05:31:47.009Z,18.2
2018-06-03T05:37:17.203Z,18.2
2018-06-03T05:42:46.416Z,18.3
2018-06-03T05:48:15.615Z,18.3
2018-06-03T05:53:45.801Z,18.3
2018-06-03T05:59:15.061Z,18.3
2018-06-03T06:04:44.206Z,18.3
2018-06-03T06:10:13.456Z,18.4
2018-06-03T06:15:42.654Z,18.5
2018-06-03T06:21:12.874Z,18.6
2018-06-03T06:26:42.148Z,18.7
2018-06-03T06:32:11.518Z,18.7
2018-06-03T06:37:40.655Z,18.7
2018-06-03T06:43:09.946Z,18.8
2018-06-03T06:48:40.233Z,18.8
2018-06-03T06:54:09.587Z,19
2018-06-03T06:59:39.781Z,19.1
2018-06-03T07:05:10.025Z,19.3
2018-06-03T07:10:39.345Z,19.4
2018-06-03T07:16:09.674Z,19.5
2018-06-03T07:21:40.179Z,19.5
2018-06-03T07:27:10.401Z,19.5
2018-06-03T07:32:40.692Z,19.6
2018-06-03T07:38:10.049Z,19.8
2018-06-03T07:43:39.468Z,19.8
2018-06-03T07:49:10.199Z,19.9
2018-06-03T07:54:40.203Z,19.9
2018-06-03T08:00:10.551Z,20.1
2018-06-03T08:05:39.940Z,20.1
2018-06-03T08:11:09.370Z,20.2
2018-06-03T08:16:38.729Z,20.3
2018-06-03T08:22:09.202Z,20.2
2018-06-03T08:27:39.572Z,20.2
2018-06-03T08:33:08.973Z,20.2
2018-06-03T08:38:38.382Z,20.3
2018-06-03T08:44:07.795Z,20.3
2018-06-03T08:49:38.232Z,20.4
2018-06-03T08:55:07.680Z,20.5
2018-06-03T09:00:37.074Z,20.5
2018-06-03T09:06:07.553Z,20.5
2018-06-03T09:11:37.021Z,20.5
2018-06-03T09:17:08.047Z,20.6
2018-06-03T09:22:37.941Z,20.6
2018-06-03T09:28:07.513Z,20.6
2018-06-03T09:33:37.826Z,20.7
2018-06-03T09:39:08.309Z,20.7
2018-06-03T09:44:37.747Z,20.7
2018-06-03T09:50:07.253Z,20.7
2018-06-03T09:55:37.746Z,20.8
2018-06-03T10:01:07.221Z,21
2018-06-03T10:06:36.683Z,21.1
2018-06-03T10:12:06.237Z,21.2
2018-06-03T10:17:36.767Z,21.2
2018-06-03T10:23:07.284Z,21.2
2018-06-03T10:28:36.840Z,21.3
2018-06-03T10:34:07.435Z,21.3
2018-06-03T10:39:36.948Z,21.4
2018-06-03T10:56:08.635Z,21.3
2018-06-03T11:01:39.217Z,21.3
2018-06-03T11:07:07.795Z,21.2
2018-06-03T11:12:37.332Z,21.2
2018-06-03T11:18:07.825Z,21.3
2018-06-03T11:23:38.289Z,21.3
2018-06-03T11:29:07.855Z,21.3
2018-06-03T11:34:37.360Z,21.2
2018-06-03T11:40:07.922Z,21.1
2018-06-03T11:45:37.434Z,21.1
2018-06-03T11:51:06.906Z,21
2018-06-03T11:56:37.405Z,21
2018-06-03T12:02:06.869Z,20.9
2018-06-03T12:07:37.344Z,20.8
2018-06-03T12:13:07.803Z,20.8
2018-06-03T12:24:08.829Z,20.7
2018-06-03T12:29:38.199Z,20.6
2018-06-03T12:35:08.710Z,20.6
2018-06-03T12:40:38.184Z,20.6
2018-06-03T12:46:07.597Z,20.6
2018-06-03T12:51:37.035Z,20.7
2018-06-03T12:57:06.555Z,20.8
2018-06-03T13:02:37.017Z,20.8
2018-06-03T13:08:06.581Z,20.8
2018-06-03T13:13:35.975Z,20.8
2018-06-03T13:19:05.481Z,20.9
2018-06-03T13:24:34.954Z,20.7
2018-06-03T13:30:04.398Z,20.7
2018-06-03T13:35:34.847Z,20.7
2018-06-03T13:41:05.315Z,20.7
2018-06-03T13:46:34.970Z,20.7
2018-06-03T13:52:04.360Z,20.6
2018-06-03T13:57:34.719Z,20.6
2018-06-03T14:03:05.147Z,20.6
2018-06-03T14:08:34.634Z,20.6
2018-06-03T14:14:05.064Z,20.6
2018-06-03T14:19:35.574Z,20.7
2018-06-03T14:25:05.949Z,20.6
2018-06-03T14:30:35.398Z,20.6
2018-06-03T14:36:05.877Z,20.5
2018-06-03T14:41:36.303Z,20.6
2018-06-03T14:47:06.765Z,20.8
2018-06-03T14:52:36.339Z,20.9
2018-06-03T14:58:06.702Z,21
2018-06-03T15:03:36.444Z,21.2
2018-06-03T15:09:05.831Z,21.2
2018-06-03T15:14:35.272Z,21.2
2018-06-03T15:20:05.861Z,21.1
2018-06-03T15:25:35.918Z,21
2018-06-03T15:31:05.895Z,20.9
2018-06-03T15:36:36.333Z,20.9
2018-06-03T15:42:05.845Z,20.8
2018-06-03T15:47:35.319Z,20.7
2018-06-03T15:53:05.895Z,20.8
2018-06-03T15:58:35.237Z,20.9
2018-06-03T16:04:04.711Z,20.9
2018-06-03T16:09:35.274Z,20.8
2018-06-03T16:15:05.833Z,20.7
2018-06-03T16:20:35.151Z,20.6
2018-06-03T16:26:05.784Z,20.5
2018-06-03T16:31:35.086Z,20.5
2018-06-03T16:37:04.520Z,20.4
2018-06-03T16:42:33.833Z,20.3
2018-06-03T16:48:03.272Z,20.2
2018-06-03T16:53:33.684Z,20.2
2018-06-03T16:59:03.134Z,20.2
2018-06-03T17:04:32.532Z,20.1
2018-06-03T17:10:02.007Z,20.1
2018-06-03T17:15:31.328Z,20
2018-06-03T17:21:00.669Z,20
2018-06-03T17:26:30.152Z,19.9
2018-06-03T17:32:00.435Z,19.8
2018-06-03T17:37:29.737Z,19.8
2018-06-03T17:42:59.114Z,19.7
2018-06-03T17:48:28.507Z,19.7
2018-06-03T17:53:57.821Z,19.6
2018-06-03T17:59:27.131Z,19.6
2018-06-03T18:04:56.509Z,19.5
2018-06-03T18:10:26.807Z,19.4
2018-06-03T18:15:56.067Z,19.3
2018-06-03T18:21:26.353Z,19.3
2018-06-03T18:26:56.690Z,19.3
2018-06-03T18:32:27.184Z,19.3
2018-06-03T18:37:56.314Z,19.3
2018-06-03T18:43:26.594Z,19.3
2018-06-03T18:48:56.859Z,19.2
2018-06-03T18:54:27.160Z,19.2
2018-06-03T18:59:56.493Z,19.2
2018-06-03T19:05:26.710Z,19.2
2018-06-03T19:10:57.104Z,19.1
2018-06-03T19:16:26.311Z,19.1
2018-06-03T19:21:56.742Z,19
2018-06-03T19:27:25.875Z,18.9
2018-06-03T19:32:56.090Z,18.8
2018-06-03T19:38:25.345Z,18.7
2018-06-03T19:43:55.667Z,18.7
2018-06-03T19:49:24.825Z,18.8
2018-06-03T19:54:54.172Z,18.8
2018-06-03T20:00:23.316Z,18.8
2018-06-03T20:05:52.575Z,18.7
2018-06-03T20:11:21.804Z,18.7
2018-06-03T20:16:51.120Z,18.6
2018-06-03T20:22:21.235Z,18.6
2018-06-03T20:27:50.493Z,18.5
2018-06-03T20:33:20.680Z,18.5
2018-06-03T20:38:49.942Z,18.5
2018-06-03T20:44:20.222Z,18.6
2018-06-03T20:49:50.395Z,18.6
2018-06-03T20:55:20.627Z,18.6
2018-06-03T21:00:49.816Z,18.6
2018-06-03T21:06:19.155Z,18.6
2018-06-03T21:11:48.262Z,18.5
2018-06-03T21:17:18.422Z,18.5
2018-06-03T21:22:48.618Z,18.4
2018-06-03T21:28:18.845Z,18.4
2018-06-03T21:33:49.211Z,18.4
2018-06-03T21:39:19.382Z,18.4
2018-06-03T21:44:48.408Z,18.3
2018-06-03T21:50:17.635Z,18.3
2018-06-03T21:55:46.860Z,18.2
2018-06-03T22:01:15.981Z,18.1
2018-06-03T22:06:45.214Z,18.1
2018-06-03T22:12:15.400Z,18.1
2018-06-03T22:17:44.643Z,18.2
2018-06-03T22:23:14.698Z,18.2
2018-06-03T22:28:44.861Z,18.1
2018-06-03T22:34:14.089Z,18
2018-06-03T22:39:44.153Z,17.9
2018-06-03T22:45:14.291Z,17.9
2018-06-03T22:50:44.478Z,18
2018-06-03T22:56:14.614Z,18
2018-06-03T23:01:43.788Z,18
2018-06-03T23:07:13.977Z,18
2018-06-03T23:12:44.120Z,17.9
2018-06-03T23:18:13.248Z,17.9
2018-06-03T23:23:43.334Z,17.9
2018-06-03T23:29:12.470Z,17.8
2018-06-03T23:34:42.659Z,17.8
2018-06-03T23:40:12.808Z,17.6
2018-06-03T23:45:41.852Z,17.5
2018-06-03T23:51:10.934Z,17.5
2018-06-03T23:56:39.997Z,17.4
